sensor_id;sensor_type;location;lat;lon;timestamp;P1;durP1;ratioP1;P2;durP2;ratioP2
77214;SDS011;66210;53.282;9.864;2023-03-14T00:00:56;5.45;;;2.50;;
77214;SDS011;66210;53.282;9.864;2023-03-14T00:03:22;6.25;;;2.20;;
77214;SDS011;66210;53.282;9.864;2023-03-14T00:05:49;4.72;;;2.03;;
77214;SDS011;66210;53.282;9.864;2023-03-14T00:08:16;8.75;;;2.30;;
77214;SDS011;66210;53.282;9.864;2023-03-14T00:10:42;5.68;;;2.40;;
77214;SDS011;66210;53.282;9.864;2023-03-14T00:13:09;4.22;;;2.08;;
77214;SDS011;66210;53.282;9.864;2023-03-14T00:15:35;5.15;;;1.92;;
77214;SDS011;66210;53.282;9.864;2023-03-14T00:18:02;3.58;;;1.90;;
77214;SDS011;66210;53.282;9.864;2023-03-14T00:20:29;3.45;;;1.90;;
77214;SDS011;66210;53.282;9.864;2023-03-14T00:22:55;5.25;;;2.35;;
77214;SDS011;66210;53.282;9.864;2023-03-14T00:25:22;4.03;;;1.70;;
77214;SDS011;66210;53.282;9.864;2023-03-14T00:27:50;5.60;;;2.13;;
77214;SDS011;66210;53.282;9.864;2023-03-14T00:30:17;6.60;;;2.58;;
77214;SDS011;66210;53.282;9.864;2023-03-14T00:32:44;4.45;;;2.08;;
77214;SDS011;66210;53.282;9.864;2023-03-14T00:35:10;5.70;;;2.38;;
77214;SDS011;66210;53.282;9.864;2023-03-14T00:37:37;4.88;;;2.22;;
77214;SDS011;66210;53.282;9.864;2023-03-14T00:40:04;5.22;;;2.20;;
77214;SDS011;66210;53.282;9.864;2023-03-14T00:42:33;5.05;;;2.10;;
77214;SDS011;66210;53.282;9.864;2023-03-14T00:45:01;3.83;;;2.00;;
77214;SDS011;66210;53.282;9.864;2023-03-14T00:47:27;5.25;;;2.00;;
77214;SDS011;66210;53.282;9.864;2023-03-14T00:49:54;6.93;;;2.33;;
77214;SDS011;66210;53.282;9.864;2023-03-14T00:52:20;4.72;;;2.05;;
77214;SDS011;66210;53.282;9.864;2023-03-14T00:54:47;5.32;;;2.03;;
77214;SDS011;66210;53.282;9.864;2023-03-14T00:57:13;8.50;;;2.22;;
77214;SDS011;66210;53.282;9.864;2023-03-14T00:59:40;3.25;;;1.98;;
77214;SDS011;66210;53.282;9.864;2023-03-14T01:02:06;6.47;;;1.73;;
77214;SDS011;66210;53.282;9.864;2023-03-14T01:04:33;4.82;;;2.22;;
77214;SDS011;66210;53.282;9.864;2023-03-14T01:07:00;6.00;;;2.25;;
77214;SDS011;66210;53.282;9.864;2023-03-14T01:09:27;5.85;;;2.38;;
77214;SDS011;66210;53.282;9.864;2023-03-14T01:11:53;5.40;;;2.30;;
77214;SDS011;66210;53.282;9.864;2023-03-14T01:14:20;6.13;;;2.45;;
77214;SDS011;66210;53.282;9.864;2023-03-14T01:16:46;5.95;;;2.53;;
77214;SDS011;66210;53.282;9.864;2023-03-14T01:19:13;5.53;;;2.45;;
77214;SDS011;66210;53.282;9.864;2023-03-14T01:21:39;7.85;;;2.45;;
77214;SDS011;66210;53.282;9.864;2023-03-14T01:24:06;6.68;;;2.45;;
77214;SDS011;66210;53.282;9.864;2023-03-14T01:26:33;11.07;;;2.55;;
77214;SDS011;66210;53.282;9.864;2023-03-14T01:29:00;7.30;;;2.58;;
77214;SDS011;66210;53.282;9.864;2023-03-14T01:31:28;7.93;;;2.20;;
77214;SDS011;66210;53.282;9.864;2023-03-14T01:33:54;7.10;;;2.45;;
77214;SDS011;66210;53.282;9.864;2023-03-14T01:36:21;8.00;;;2.88;;
77214;SDS011;66210;53.282;9.864;2023-03-14T01:38:47;8.30;;;2.63;;
77214;SDS011;66210;53.282;9.864;2023-03-14T01:41:21;9.55;;;2.45;;
77214;SDS011;66210;53.282;9.864;2023-03-14T01:43:50;9.35;;;2.65;;
77214;SDS011;66210;53.282;9.864;2023-03-14T01:46:24;8.13;;;2.47;;
77214;SDS011;66210;53.282;9.864;2023-03-14T01:49:04;9.55;;;2.20;;
77214;SDS011;66210;53.282;9.864;2023-03-14T01:51:56;6.63;;;2.10;;
77214;SDS011;66210;53.282;9.864;2023-03-14T01:57:07;8.32;;;2.20;;
77214;SDS011;66210;53.282;9.864;2023-03-14T01:59:39;6.15;;;2.35;;
77214;SDS011;66210;53.282;9.864;2023-03-14T02:02:09;8.32;;;2.15;;
77214;SDS011;66210;53.282;9.864;2023-03-14T02:04:38;8.55;;;2.60;;
77214;SDS011;66210;53.282;9.864;2023-03-14T02:07:11;8.55;;;2.70;;
77214;SDS011;66210;53.282;9.864;2023-03-14T02:09:59;10.07;;;2.90;;
77214;SDS011;66210;53.282;9.864;2023-03-14T02:12:28;6.55;;;2.60;;
77214;SDS011;66210;53.282;9.864;2023-03-14T02:14:55;6.00;;;2.35;;
77214;SDS011;66210;53.282;9.864;2023-03-14T02:17:22;6.00;;;2.65;;
77214;SDS011;66210;53.282;9.864;2023-03-14T02:22:35;6.13;;;3.25;;
77214;SDS011;66210;53.282;9.864;2023-03-14T02:25:06;9.15;;;2.83;;
77214;SDS011;66210;53.282;9.864;2023-03-14T02:27:37;7.25;;;2.50;;
77214;SDS011;66210;53.282;9.864;2023-03-14T02:30:05;7.00;;;2.47;;
77214;SDS011;66210;53.282;9.864;2023-03-14T02:32:36;6.72;;;2.35;;
77214;SDS011;66210;53.282;9.864;2023-03-14T02:35:07;7.22;;;2.63;;
77214;SDS011;66210;53.282;9.864;2023-03-14T02:37:46;4.82;;;2.70;;
77214;SDS011;66210;53.282;9.864;2023-03-14T02:40:16;8.05;;;2.63;;
77214;SDS011;66210;53.282;9.864;2023-03-14T02:42:43;6.55;;;2.17;;
77214;SDS011;66210;53.282;9.864;2023-03-14T02:47:37;9.90;;;2.40;;
77214;SDS011;66210;53.282;9.864;2023-03-14T02:50:12;8.43;;;2.50;;
77214;SDS011;66210;53.282;9.864;2023-03-14T02:52:41;8.23;;;2.28;;
77214;SDS011;66210;53.282;9.864;2023-03-14T02:55:08;5.18;;;2.22;;
77214;SDS011;66210;53.282;9.864;2023-03-14T02:57:35;7.20;;;2.08;;
77214;SDS011;66210;53.282;9.864;2023-03-14T03:00:01;6.32;;;1.90;;
77214;SDS011;66210;53.282;9.864;2023-03-14T03:02:32;6.43;;;2.17;;
77214;SDS011;66210;53.282;9.864;2023-03-14T03:04:59;7.07;;;2.20;;
77214;SDS011;66210;53.282;9.864;2023-03-14T03:07:25;5.28;;;2.30;;
77214;SDS011;66210;53.282;9.864;2023-03-14T03:09:52;6.55;;;2.20;;
77214;SDS011;66210;53.282;9.864;2023-03-14T03:12:18;6.10;;;2.40;;
77214;SDS011;66210;53.282;9.864;2023-03-14T03:14:45;14.65;;;2.47;;
77214;SDS011;66210;53.282;9.864;2023-03-14T03:17:11;8.27;;;2.22;;
77214;SDS011;66210;53.282;9.864;2023-03-14T03:19:38;8.63;;;2.60;;
77214;SDS011;66210;53.282;9.864;2023-03-14T03:22:04;6.80;;;2.40;;
77214;SDS011;66210;53.282;9.864;2023-03-14T03:24:31;8.80;;;2.70;;
77214;SDS011;66210;53.282;9.864;2023-03-14T03:26:58;7.38;;;2.20;;
77214;SDS011;66210;53.282;9.864;2023-03-14T03:29:24;5.93;;;2.30;;
77214;SDS011;66210;53.282;9.864;2023-03-14T03:31:50;10.77;;;2.45;;
77214;SDS011;66210;53.282;9.864;2023-03-14T03:34:17;13.95;;;2.60;;
77214;SDS011;66210;53.282;9.864;2023-03-14T03:36:43;13.43;;;2.90;;
77214;SDS011;66210;53.282;9.864;2023-03-14T03:39:10;5.93;;;2.03;;
77214;SDS011;66210;53.282;9.864;2023-03-14T03:41:36;6.05;;;2.22;;
77214;SDS011;66210;53.282;9.864;2023-03-14T03:46:39;7.45;;;2.40;;
77214;SDS011;66210;53.282;9.864;2023-03-14T03:49:06;6.93;;;2.20;;
77214;SDS011;66210;53.282;9.864;2023-03-14T03:51:32;11.35;;;2.35;;
77214;SDS011;66210;53.282;9.864;2023-03-14T03:53:59;8.55;;;2.58;;
77214;SDS011;66210;53.282;9.864;2023-03-14T03:56:25;8.48;;;2.55;;
77214;SDS011;66210;53.282;9.864;2023-03-14T03:58:52;13.27;;;3.58;;
77214;SDS011;66210;53.282;9.864;2023-03-14T04:01:18;9.13;;;2.78;;
77214;SDS011;66210;53.282;9.864;2023-03-14T04:03:45;7.90;;;1.92;;
77214;SDS011;66210;53.282;9.864;2023-03-14T04:06:12;6.50;;;2.35;;
77214;SDS011;66210;53.282;9.864;2023-03-14T04:08:39;7.65;;;2.55;;
77214;SDS011;66210;53.282;9.864;2023-03-14T04:11:09;12.43;;;3.80;;
77214;SDS011;66210;53.282;9.864;2023-03-14T04:13:36;14.90;;;2.67;;
77214;SDS011;66210;53.282;9.864;2023-03-14T04:16:02;6.57;;;2.42;;
77214;SDS011;66210;53.282;9.864;2023-03-14T04:18:29;5.57;;;2.00;;
77214;SDS011;66210;53.282;9.864;2023-03-14T04:20:56;5.78;;;2.50;;
77214;SDS011;66210;53.282;9.864;2023-03-14T04:23:24;5.65;;;2.33;;
77214;SDS011;66210;53.282;9.864;2023-03-14T04:25:51;9.55;;;2.47;;
77214;SDS011;66210;53.282;9.864;2023-03-14T04:28:18;7.22;;;2.20;;
77214;SDS011;66210;53.282;9.864;2023-03-14T04:30:45;6.47;;;2.70;;
77214;SDS011;66210;53.282;9.864;2023-03-14T04:33:11;9.15;;;2.83;;
77214;SDS011;66210;53.282;9.864;2023-03-14T04:35:41;10.75;;;2.65;;
77214;SDS011;66210;53.282;9.864;2023-03-14T04:38:08;6.47;;;2.47;;
77214;SDS011;66210;53.282;9.864;2023-03-14T04:40:36;7.43;;;2.70;;
77214;SDS011;66210;53.282;9.864;2023-03-14T04:43:03;8.27;;;2.22;;
77214;SDS011;66210;53.282;9.864;2023-03-14T04:45:30;4.80;;;2.17;;
77214;SDS011;66210;53.282;9.864;2023-03-14T04:47:56;5.70;;;2.13;;
77214;SDS011;66210;53.282;9.864;2023-03-14T04:50:23;6.75;;;2.17;;
77214;SDS011;66210;53.282;9.864;2023-03-14T04:52:50;8.98;;;2.65;;
77214;SDS011;66210;53.282;9.864;2023-03-14T04:55:17;7.20;;;2.25;;
77214;SDS011;66210;53.282;9.864;2023-03-14T04:57:43;6.18;;;2.03;;
77214;SDS011;66210;53.282;9.864;2023-03-14T05:00:10;2.80;;;1.90;;
77214;SDS011;66210;53.282;9.864;2023-03-14T05:02:37;10.27;;;2.55;;
77214;SDS011;66210;53.282;9.864;2023-03-14T05:05:04;6.05;;;2.25;;
77214;SDS011;66210;53.282;9.864;2023-03-14T05:07:31;9.15;;;2.45;;
77214;SDS011;66210;53.282;9.864;2023-03-14T05:09:58;5.65;;;2.10;;
77214;SDS011;66210;53.282;9.864;2023-03-14T05:12:25;8.93;;;2.80;;
77214;SDS011;66210;53.282;9.864;2023-03-14T05:14:51;8.20;;;2.35;;
77214;SDS011;66210;53.282;9.864;2023-03-14T05:17:18;4.68;;;1.95;;
77214;SDS011;66210;53.282;9.864;2023-03-14T05:19:45;7.18;;;2.72;;
77214;SDS011;66210;53.282;9.864;2023-03-14T05:22:11;6.15;;;2.22;;
77214;SDS011;66210;53.282;9.864;2023-03-14T05:24:38;9.35;;;2.67;;
77214;SDS011;66210;53.282;9.864;2023-03-14T05:27:05;5.70;;;1.90;;
77214;SDS011;66210;53.282;9.864;2023-03-14T05:29:32;4.75;;;2.20;;
77214;SDS011;66210;53.282;9.864;2023-03-14T05:31:58;8.15;;;2.05;;
77214;SDS011;66210;53.282;9.864;2023-03-14T05:34:25;6.40;;;2.20;;
77214;SDS011;66210;53.282;9.864;2023-03-14T05:36:52;5.30;;;1.95;;
77214;SDS011;66210;53.282;9.864;2023-03-14T05:39:19;4.65;;;1.75;;
77214;SDS011;66210;53.282;9.864;2023-03-14T05:41:46;6.88;;;2.10;;
77214;SDS011;66210;53.282;9.864;2023-03-14T05:44:12;5.15;;;2.00;;
77214;SDS011;66210;53.282;9.864;2023-03-14T05:46:40;5.22;;;2.03;;
77214;SDS011;66210;53.282;9.864;2023-03-14T05:49:07;5.38;;;2.40;;
77214;SDS011;66210;53.282;9.864;2023-03-14T05:51:34;5.25;;;3.03;;
77214;SDS011;66210;53.282;9.864;2023-03-14T05:54:00;6.97;;;2.92;;
77214;SDS011;66210;53.282;9.864;2023-03-14T05:56:27;5.15;;;1.90;;
77214;SDS011;66210;53.282;9.864;2023-03-14T05:58:54;8.10;;;2.30;;
77214;SDS011;66210;53.282;9.864;2023-03-14T06:01:20;7.18;;;2.22;;
77214;SDS011;66210;53.282;9.864;2023-03-14T06:03:47;6.70;;;2.00;;
77214;SDS011;66210;53.282;9.864;2023-03-14T06:06:14;7.45;;;2.22;;
77214;SDS011;66210;53.282;9.864;2023-03-14T06:08:40;7.20;;;2.40;;
77214;SDS011;66210;53.282;9.864;2023-03-14T06:11:07;9.48;;;2.33;;
77214;SDS011;66210;53.282;9.864;2023-03-14T06:13:34;4.20;;;1.83;;
77214;SDS011;66210;53.282;9.864;2023-03-14T06:16:01;6.30;;;2.08;;
77214;SDS011;66210;53.282;9.864;2023-03-14T06:18:28;6.05;;;2.00;;
77214;SDS011;66210;53.282;9.864;2023-03-14T06:20:55;4.22;;;2.00;;
77214;SDS011;66210;53.282;9.864;2023-03-14T06:23:22;4.78;;;2.08;;
77214;SDS011;66210;53.282;9.864;2023-03-14T06:25:51;6.78;;;2.42;;
77214;SDS011;66210;53.282;9.864;2023-03-14T06:28:18;7.93;;;2.40;;
77214;SDS011;66210;53.282;9.864;2023-03-14T06:30:44;5.57;;;1.90;;
77214;SDS011;66210;53.282;9.864;2023-03-14T06:33:11;5.82;;;1.90;;
77214;SDS011;66210;53.282;9.864;2023-03-14T06:35:38;5.30;;;2.10;;
77214;SDS011;66210;53.282;9.864;2023-03-14T06:38:04;6.07;;;2.10;;
77214;SDS011;66210;53.282;9.864;2023-03-14T06:40:31;6.38;;;2.78;;
77214;SDS011;66210;53.282;9.864;2023-03-14T06:42:58;6.68;;;2.10;;
77214;SDS011;66210;53.282;9.864;2023-03-14T06:45:24;7.68;;;2.58;;
77214;SDS011;66210;53.282;9.864;2023-03-14T06:47:51;3.75;;;1.80;;
77214;SDS011;66210;53.282;9.864;2023-03-14T06:50:18;8.55;;;2.10;;
77214;SDS011;66210;53.282;9.864;2023-03-14T06:52:45;5.53;;;1.80;;
77214;SDS011;66210;53.282;9.864;2023-03-14T06:55:15;6.15;;;1.88;;
77214;SDS011;66210;53.282;9.864;2023-03-14T06:57:42;4.15;;;1.73;;
77214;SDS011;66210;53.282;9.864;2023-03-14T07:00:11;6.05;;;2.30;;
77214;SDS011;66210;53.282;9.864;2023-03-14T07:02:39;6.60;;;1.90;;
77214;SDS011;66210;53.282;9.864;2023-03-14T07:05:09;4.20;;;1.80;;
77214;SDS011;66210;53.282;9.864;2023-03-14T07:07:36;4.80;;;1.60;;
77214;SDS011;66210;53.282;9.864;2023-03-14T07:10:03;5.07;;;1.75;;
77214;SDS011;66210;53.282;9.864;2023-03-14T07:12:30;5.80;;;2.45;;
77214;SDS011;66210;53.282;9.864;2023-03-14T07:14:57;5.18;;;1.65;;
77214;SDS011;66210;53.282;9.864;2023-03-14T07:17:37;4.65;;;1.50;;
77214;SDS011;66210;53.282;9.864;2023-03-14T07:20:04;3.25;;;1.70;;
77214;SDS011;66210;53.282;9.864;2023-03-14T07:25:00;4.72;;;1.60;;
77214;SDS011;66210;53.282;9.864;2023-03-14T07:27:27;5.63;;;1.92;;
77214;SDS011;66210;53.282;9.864;2023-03-14T07:29:54;3.83;;;2.10;;
77214;SDS011;66210;53.282;9.864;2023-03-14T07:32:20;7.10;;;2.28;;
77214;SDS011;66210;53.282;9.864;2023-03-14T07:34:47;7.95;;;2.58;;
77214;SDS011;66210;53.282;9.864;2023-03-14T07:37:14;4.13;;;2.20;;
77214;SDS011;66210;53.282;9.864;2023-03-14T07:39:40;7.32;;;2.50;;
77214;SDS011;66210;53.282;9.864;2023-03-14T07:42:07;4.40;;;2.40;;
77214;SDS011;66210;53.282;9.864;2023-03-14T07:44:34;7.15;;;2.80;;
77214;SDS011;66210;53.282;9.864;2023-03-14T07:47:01;5.47;;;2.60;;
77214;SDS011;66210;53.282;9.864;2023-03-14T07:49:28;6.30;;;3.15;;
77214;SDS011;66210;53.282;9.864;2023-03-14T07:51:55;5.78;;;2.90;;
77214;SDS011;66210;53.282;9.864;2023-03-14T07:54:21;10.70;;;2.80;;
77214;SDS011;66210;53.282;9.864;2023-03-14T07:56:50;6.75;;;3.15;;
77214;SDS011;66210;53.282;9.864;2023-03-14T07:59:18;13.85;;;3.55;;
77214;SDS011;66210;53.282;9.864;2023-03-14T08:01:45;9.02;;;3.30;;
77214;SDS011;66210;53.282;9.864;2023-03-14T08:04:12;11.15;;;3.70;;
77214;SDS011;66210;53.282;9.864;2023-03-14T08:06:39;9.98;;;3.58;;
77214;SDS011;66210;53.282;9.864;2023-03-14T08:09:05;7.63;;;3.60;;
77214;SDS011;66210;53.282;9.864;2023-03-14T08:11:32;6.75;;;3.80;;
77214;SDS011;66210;53.282;9.864;2023-03-14T08:13:59;11.15;;;3.55;;
77214;SDS011;66210;53.282;9.864;2023-03-14T08:16:26;14.45;;;4.38;;
77214;SDS011;66210;53.282;9.864;2023-03-14T08:18:52;7.00;;;3.90;;
77214;SDS011;66210;53.282;9.864;2023-03-14T08:21:19;8.90;;;4.03;;
77214;SDS011;66210;53.282;9.864;2023-03-14T08:23:46;9.48;;;3.75;;
77214;SDS011;66210;53.282;9.864;2023-03-14T08:26:12;13.27;;;3.95;;
77214;SDS011;66210;53.282;9.864;2023-03-14T08:28:39;9.88;;;3.80;;
77214;SDS011;66210;53.282;9.864;2023-03-14T08:31:06;10.55;;;4.03;;
77214;SDS011;66210;53.282;9.864;2023-03-14T08:33:33;14.85;;;4.68;;
77214;SDS011;66210;53.282;9.864;2023-03-14T08:35:59;8.63;;;4.03;;
77214;SDS011;66210;53.282;9.864;2023-03-14T08:38:27;10.85;;;3.80;;
77214;SDS011;66210;53.282;9.864;2023-03-14T08:40:58;7.82;;;3.60;;
77214;SDS011;66210;53.282;9.864;2023-03-14T08:43:26;7.30;;;3.22;;
77214;SDS011;66210;53.282;9.864;2023-03-14T08:45:57;9.57;;;3.63;;
77214;SDS011;66210;53.282;9.864;2023-03-14T08:48:24;9.55;;;3.90;;
77214;SDS011;66210;53.282;9.864;2023-03-14T08:50:50;8.82;;;3.17;;
77214;SDS011;66210;53.282;9.864;2023-03-14T08:53:17;9.13;;;3.90;;
77214;SDS011;66210;53.282;9.864;2023-03-14T08:55:45;10.05;;;3.38;;
77214;SDS011;66210;53.282;9.864;2023-03-14T08:58:11;13.48;;;3.17;;
77214;SDS011;66210;53.282;9.864;2023-03-14T09:00:38;6.70;;;2.42;;
77214;SDS011;66210;53.282;9.864;2023-03-14T09:03:05;6.88;;;2.83;;
77214;SDS011;66210;53.282;9.864;2023-03-14T09:05:32;7.10;;;2.80;;
77214;SDS011;66210;53.282;9.864;2023-03-14T09:08:00;8.02;;;2.50;;
77214;SDS011;66210;53.282;9.864;2023-03-14T09:10:28;9.65;;;2.70;;
77214;SDS011;66210;53.282;9.864;2023-03-14T09:12:54;8.90;;;2.55;;
77214;SDS011;66210;53.282;9.864;2023-03-14T09:15:21;7.82;;;2.55;;
77214;SDS011;66210;53.282;9.864;2023-03-14T09:17:48;11.30;;;2.95;;
77214;SDS011;66210;53.282;9.864;2023-03-14T09:20:15;6.32;;;2.47;;
77214;SDS011;66210;53.282;9.864;2023-03-14T09:22:42;5.32;;;2.20;;
77214;SDS011;66210;53.282;9.864;2023-03-14T09:25:08;6.65;;;2.40;;
77214;SDS011;66210;53.282;9.864;2023-03-14T09:27:36;54.40;;;3.72;;
77214;SDS011;66210;53.282;9.864;2023-03-14T09:30:03;28.25;;;2.80;;
77214;SDS011;66210;53.282;9.864;2023-03-14T09:32:31;8.88;;;2.80;;
77214;SDS011;66210;53.282;9.864;2023-03-14T09:34:58;10.23;;;2.08;;
77214;SDS011;66210;53.282;9.864;2023-03-14T09:37:25;5.22;;;1.92;;
77214;SDS011;66210;53.282;9.864;2023-03-14T09:39:52;6.32;;;2.00;;
77214;SDS011;66210;53.282;9.864;2023-03-14T09:42:19;9.15;;;2.15;;
77214;SDS011;66210;53.282;9.864;2023-03-14T09:44:56;4.97;;;1.80;;
77214;SDS011;66210;53.282;9.864;2023-03-14T09:47:26;7.15;;;1.90;;
77214;SDS011;66210;53.282;9.864;2023-03-14T09:49:54;5.90;;;1.50;;
77214;SDS011;66210;53.282;9.864;2023-03-14T09:55:04;5.20;;;1.63;;
77214;SDS011;66210;53.282;9.864;2023-03-14T09:57:33;3.45;;;1.70;;
77214;SDS011;66210;53.282;9.864;2023-03-14T10:02:40;5.25;;;1.50;;
77214;SDS011;66210;53.282;9.864;2023-03-14T10:05:16;6.38;;;1.80;;
77214;SDS011;66210;53.282;9.864;2023-03-14T10:07:44;2.35;;;1.33;;
77214;SDS011;66210;53.282;9.864;2023-03-14T10:10:13;4.65;;;1.50;;
77214;SDS011;66210;53.282;9.864;2023-03-14T10:12:54;4.75;;;1.35;;
77214;SDS011;66210;53.282;9.864;2023-03-14T10:15:32;1.88;;;0.90;;
77214;SDS011;66210;53.282;9.864;2023-03-14T10:18:01;1.25;;;0.77;;
77214;SDS011;66210;53.282;9.864;2023-03-14T10:25:40;2.75;;;0.82;;
77214;SDS011;66210;53.282;9.864;2023-03-14T10:31:03;3.30;;;0.63;;
77214;SDS011;66210;53.282;9.864;2023-03-14T10:33:34;1.65;;;0.80;;
77214;SDS011;66210;53.282;9.864;2023-03-14T10:36:21;0.88;;;0.65;;
77214;SDS011;66210;53.282;9.864;2023-03-14T10:38:57;2.78;;;1.20;;
77214;SDS011;66210;53.282;9.864;2023-03-14T10:41:30;2.58;;;1.15;;
77214;SDS011;66210;53.282;9.864;2023-03-14T10:43:58;1.60;;;1.40;;
77214;SDS011;66210;53.282;9.864;2023-03-14T10:46:28;2.50;;;1.30;;
77214;SDS011;66210;53.282;9.864;2023-03-14T10:48:57;1.88;;;1.42;;
77214;SDS011;66210;53.282;9.864;2023-03-14T10:51:29;1.60;;;1.40;;
77214;SDS011;66210;53.282;9.864;2023-03-14T10:56:36;2.78;;;1.85;;
77214;SDS011;66210;53.282;9.864;2023-03-14T10:59:04;5.68;;;1.90;;
77214;SDS011;66210;53.282;9.864;2023-03-14T11:07:27;1.88;;;1.00;;
77214;SDS011;66210;53.282;9.864;2023-03-14T11:15:38;2.03;;;0.90;;
77214;SDS011;66210;53.282;9.864;2023-03-14T11:18:17;0.80;;;0.80;;
77214;SDS011;66210;53.282;9.864;2023-03-14T11:20:52;0.95;;;0.90;;
77214;SDS011;66210;53.282;9.864;2023-03-14T11:23:41;3.22;;;1.02;;
77214;SDS011;66210;53.282;9.864;2023-03-14T11:31:38;1.10;;;0.90;;
77214;SDS011;66210;53.282;9.864;2023-03-14T11:36:53;2.22;;;0.93;;
77214;SDS011;66210;53.282;9.864;2023-03-14T11:39:40;0.90;;;0.80;;
77214;SDS011;66210;53.282;9.864;2023-03-14T11:42:12;1.20;;;0.75;;
77214;SDS011;66210;53.282;9.864;2023-03-14T11:44:42;2.28;;;1.38;;
77214;SDS011;66210;53.282;9.864;2023-03-14T11:47:18;2.08;;;0.80;;
77214;SDS011;66210;53.282;9.864;2023-03-14T11:49:58;3.60;;;1.25;;
77214;SDS011;66210;53.282;9.864;2023-03-14T11:52:41;4.60;;;1.70;;
77214;SDS011;66210;53.282;9.864;2023-03-14T11:55:23;4.05;;;1.10;;
77214;SDS011;66210;53.282;9.864;2023-03-14T11:57:53;2.75;;;1.02;;
77214;SDS011;66210;53.282;9.864;2023-03-14T12:00:25;2.13;;;0.82;;
77214;SDS011;66210;53.282;9.864;2023-03-14T12:03:02;1.75;;;1.10;;
77214;SDS011;66210;53.282;9.864;2023-03-14T12:11:21;3.95;;;1.30;;
77214;SDS011;66210;53.282;9.864;2023-03-14T12:13:55;2.70;;;0.65;;
77214;SDS011;66210;53.282;9.864;2023-03-14T12:16:37;2.97;;;0.80;;
77214;SDS011;66210;53.282;9.864;2023-03-14T12:19:40;4.22;;;0.85;;
77214;SDS011;66210;53.282;9.864;2023-03-14T12:24:33;10.15;;;1.33;;
77214;SDS011;66210;53.282;9.864;2023-03-14T12:27:02;7.95;;;1.40;;
77214;SDS011;66210;53.282;9.864;2023-03-14T12:29:31;7.05;;;1.55;;
77214;SDS011;66210;53.282;9.864;2023-03-14T12:34:28;6.53;;;1.35;;
77214;SDS011;66210;53.282;9.864;2023-03-14T12:37:01;8.27;;;1.70;;
77214;SDS011;66210;53.282;9.864;2023-03-14T12:42:35;6.95;;;1.80;;
77214;SDS011;66210;53.282;9.864;2023-03-14T12:51:02;6.50;;;1.52;;
77214;SDS011;66210;53.282;9.864;2023-03-14T12:53:37;10.82;;;2.58;;
77214;SDS011;66210;53.282;9.864;2023-03-14T12:59:36;6.85;;;1.60;;
77214;SDS011;66210;53.282;9.864;2023-03-14T13:04:35;10.02;;;1.67;;
77214;SDS011;66210;53.282;9.864;2023-03-14T13:07:13;7.13;;;1.58;;
77214;SDS011;66210;53.282;9.864;2023-03-14T13:10:00;7.18;;;1.63;;
77214;SDS011;66210;53.282;9.864;2023-03-14T13:12:43;9.63;;;1.80;;
77214;SDS011;66210;53.282;9.864;2023-03-14T13:15:17;10.20;;;1.55;;
77214;SDS011;66210;53.282;9.864;2023-03-14T13:17:46;13.48;;;2.00;;
77214;SDS011;66210;53.282;9.864;2023-03-14T13:20:16;6.43;;;1.48;;
77214;SDS011;66210;53.282;9.864;2023-03-14T13:22:49;14.30;;;2.10;;
77214;SDS011;66210;53.282;9.864;2023-03-14T13:25:17;17.70;;;2.08;;
77214;SDS011;66210;53.282;9.864;2023-03-14T13:27:47;15.68;;;2.03;;
77214;SDS011;66210;53.282;9.864;2023-03-14T13:30:25;19.65;;;2.58;;
77214;SDS011;66210;53.282;9.864;2023-03-14T13:32:54;19.70;;;2.72;;
77214;SDS011;66210;53.282;9.864;2023-03-14T13:37:58;11.55;;;2.17;;
77214;SDS011;66210;53.282;9.864;2023-03-14T13:40:42;12.50;;;2.22;;
77214;SDS011;66210;53.282;9.864;2023-03-14T13:43:13;17.23;;;2.22;;
77214;SDS011;66210;53.282;9.864;2023-03-14T13:45:44;7.93;;;1.77;;
77214;SDS011;66210;53.282;9.864;2023-03-14T13:48:14;12.15;;;1.85;;
77214;SDS011;66210;53.282;9.864;2023-03-14T13:50:46;7.05;;;1.40;;
77214;SDS011;66210;53.282;9.864;2023-03-14T13:53:16;11.52;;;1.77;;
77214;SDS011;66210;53.282;9.864;2023-03-14T13:55:42;9.63;;;1.65;;
77214;SDS011;66210;53.282;9.864;2023-03-14T13:58:18;12.27;;;1.98;;
77214;SDS011;66210;53.282;9.864;2023-03-14T14:00:54;8.05;;;1.92;;
77214;SDS011;66210;53.282;9.864;2023-03-14T14:03:27;8.25;;;1.40;;
77214;SDS011;66210;53.282;9.864;2023-03-14T14:05:56;12.27;;;1.58;;
77214;SDS011;66210;53.282;9.864;2023-03-14T14:08:24;5.20;;;1.58;;
77214;SDS011;66210;53.282;9.864;2023-03-14T14:10:53;6.82;;;2.00;;
77214;SDS011;66210;53.282;9.864;2023-03-14T14:13:24;7.25;;;1.63;;
77214;SDS011;66210;53.282;9.864;2023-03-14T14:15:55;11.38;;;1.58;;
77214;SDS011;66210;53.282;9.864;2023-03-14T14:18:24;10.07;;;1.40;;
77214;SDS011;66210;53.282;9.864;2023-03-14T14:20:54;14.98;;;2.50;;
77214;SDS011;66210;53.282;9.864;2023-03-14T14:23:22;7.97;;;1.63;;
77214;SDS011;66210;53.282;9.864;2023-03-14T14:25:52;5.00;;;1.63;;
77214;SDS011;66210;53.282;9.864;2023-03-14T14:33:45;8.32;;;1.45;;
77214;SDS011;66210;53.282;9.864;2023-03-14T14:36:24;11.40;;;2.13;;
77214;SDS011;66210;53.282;9.864;2023-03-14T14:38:56;6.20;;;1.30;;
77214;SDS011;66210;53.282;9.864;2023-03-14T14:41:29;6.72;;;1.20;;
77214;SDS011;66210;53.282;9.864;2023-03-14T14:43:58;7.03;;;1.40;;
77214;SDS011;66210;53.282;9.864;2023-03-14T14:46:26;6.38;;;1.70;;
77214;SDS011;66210;53.282;9.864;2023-03-14T14:48:57;7.63;;;1.70;;
77214;SDS011;66210;53.282;9.864;2023-03-14T14:51:31;9.13;;;1.75;;
77214;SDS011;66210;53.282;9.864;2023-03-14T14:54:19;7.63;;;1.50;;
77214;SDS011;66210;53.282;9.864;2023-03-14T14:57:01;6.10;;;1.58;;
77214;SDS011;66210;53.282;9.864;2023-03-14T14:59:29;12.73;;;1.98;;
77214;SDS011;66210;53.282;9.864;2023-03-14T15:01:57;7.25;;;1.40;;
77214;SDS011;66210;53.282;9.864;2023-03-14T15:04:26;16.00;;;2.22;;
77214;SDS011;66210;53.282;9.864;2023-03-14T15:06:53;8.63;;;1.95;;
77214;SDS011;66210;53.282;9.864;2023-03-14T15:09:19;9.13;;;1.48;;
77214;SDS011;66210;53.282;9.864;2023-03-14T15:11:47;10.13;;;1.98;;
77214;SDS011;66210;53.282;9.864;2023-03-14T15:14:14;9.30;;;1.50;;
77214;SDS011;66210;53.282;9.864;2023-03-14T15:16:41;7.07;;;1.42;;
77214;SDS011;66210;53.282;9.864;2023-03-14T15:19:10;2.38;;;0.95;;
77214;SDS011;66210;53.282;9.864;2023-03-14T15:21:51;6.57;;;1.45;;
77214;SDS011;66210;53.282;9.864;2023-03-14T15:24:18;11.70;;;1.83;;
77214;SDS011;66210;53.282;9.864;2023-03-14T15:26:45;11.52;;;2.28;;
77214;SDS011;66210;53.282;9.864;2023-03-14T15:29:12;6.32;;;1.38;;
77214;SDS011;66210;53.282;9.864;2023-03-14T15:31:39;8.63;;;1.50;;
77214;SDS011;66210;53.282;9.864;2023-03-14T15:34:06;5.03;;;1.20;;
77214;SDS011;66210;53.282;9.864;2023-03-14T15:36:33;8.60;;;2.33;;
77214;SDS011;66210;53.282;9.864;2023-03-14T15:39:02;7.40;;;1.90;;
77214;SDS011;66210;53.282;9.864;2023-03-14T15:41:30;7.00;;;1.70;;
77214;SDS011;66210;53.282;9.864;2023-03-14T15:43:57;12.50;;;2.13;;
77214;SDS011;66210;53.282;9.864;2023-03-14T15:46:24;15.77;;;1.95;;
77214;SDS011;66210;53.282;9.864;2023-03-14T15:48:51;6.05;;;1.73;;
77214;SDS011;66210;53.282;9.864;2023-03-14T15:51:18;10.15;;;1.52;;
77214;SDS011;66210;53.282;9.864;2023-03-14T15:53:45;5.05;;;1.20;;
77214;SDS011;66210;53.282;9.864;2023-03-14T15:56:16;6.07;;;1.55;;
77214;SDS011;66210;53.282;9.864;2023-03-14T15:58:44;12.90;;;2.40;;
77214;SDS011;66210;53.282;9.864;2023-03-14T16:01:13;9.65;;;1.50;;
77214;SDS011;66210;53.282;9.864;2023-03-14T16:03:45;6.53;;;1.45;;
77214;SDS011;66210;53.282;9.864;2023-03-14T16:08:41;5.10;;;1.17;;
77214;SDS011;66210;53.282;9.864;2023-03-14T16:11:11;6.35;;;1.63;;
77214;SDS011;66210;53.282;9.864;2023-03-14T16:13:39;16.45;;;1.80;;
77214;SDS011;66210;53.282;9.864;2023-03-14T16:16:06;7.20;;;1.50;;
77214;SDS011;66210;53.282;9.864;2023-03-14T16:18:35;18.17;;;1.98;;
77214;SDS011;66210;53.282;9.864;2023-03-14T16:21:04;10.38;;;1.50;;